createdAt,value
2018-04-08T00:00:58.270Z,16.07
2018-04-08T00:03:25.784Z,17.20
2018-04-08T00:05:53.322Z,15.40
2018-04-08T00:08:20.875Z,13.80
2018-04-08T00:10:48.372Z,16.17
2018-04-08T00:13:16.723Z,17.23
2018-04-08T00:15:44.235Z,16.20
2018-04-08T00:18:11.765Z,15.27
2018-04-08T00:20:40.080Z,16.37
2018-04-08T00:23:07.666Z,17.10
2018-04-08T00:25:35.143Z,14.40
2018-04-08T00:28:02.676Z,15.53
2018-04-08T00:30:30.179Z,15.77
2018-04-08T00:32:58.479Z,14.03
2018-04-08T00:35:25.986Z,14.10
2018-04-08T00:37:53.503Z,15.93
2018-04-08T00:40:21.021Z,17.90
2018-04-08T00:42:48.533Z,14.50
2018-04-08T00:45:16.089Z,15.60
2018-04-08T00:47:43.593Z,16.73
2018-04-08T00:50:11.147Z,15.87
2018-04-08T00:52:38.682Z,22.50
2018-04-08T00:55:06.228Z,23.63
2018-04-08T00:57:33.796Z,16.23
2018-04-08T01:00:01.302Z,20.23
2018-04-08T01:02:29.604Z,13.73
2018-04-08T01:04:57.118Z,17.07
2018-04-08T01:07:24.653Z,18.40
2018-04-08T01:09:52.179Z,39.83
2018-04-08T01:12:19.715Z,18.00
2018-04-08T01:14:48.022Z,16.50
2018-04-08T01:17:15.581Z,20.50
2018-04-08T01:19:43.096Z,20.10
2018-04-08T01:22:10.633Z,19.90
2018-04-08T01:24:38.135Z,19.40
2018-04-08T01:27:05.658Z,18.13
2018-04-08T01:29:33.212Z,19.00
2018-04-08T01:32:00.714Z,18.43
2018-04-08T01:34:29.010Z,20.90
2018-04-08T01:36:56.550Z,23.50
2018-04-08T01:39:24.833Z,26.17
2018-04-08T01:41:53.134Z,18.20
2018-04-08T01:44:20.648Z,20.77
2018-04-08T01:46:48.955Z,20.80
2018-04-08T01:49:16.478Z,31.23
2018-04-08T01:51:44.808Z,25.20
2018-04-08T01:54:12.346Z,24.43
2018-04-08T01:56:39.902Z,21.10
2018-04-08T01:59:07.430Z,28.10
2018-04-08T02:01:34.942Z,32.93
2018-04-08T02:04:02.481Z,22.97
2018-04-08T02:06:30.032Z,24.63
2018-04-08T02:08:57.575Z,23.20
2018-04-08T02:11:25.871Z,21.37
2018-04-08T02:13:54.176Z,23.57
2018-04-08T02:16:21.685Z,24.13
2018-04-08T02:18:49.966Z,23.83
2018-04-08T02:21:18.287Z,25.60
2018-04-08T02:23:45.791Z,24.47
2018-04-08T02:26:14.072Z,24.13
2018-04-08T02:28:41.982Z,22.13
2018-04-08T02:31:09.537Z,22.27
2018-04-08T02:33:37.071Z,24.77
2018-04-08T02:36:05.339Z,22.50
2018-04-08T02:38:33.627Z,26.23
2018-04-08T02:41:01.166Z,22.43
2018-04-08T02:43:29.447Z,28.67
2018-04-08T02:45:57.758Z,23.13
2018-04-08T02:48:25.263Z,26.60
2018-04-08T02:50:52.789Z,21.10
2018-04-08T02:53:20.293Z,21.70
2018-04-08T02:55:47.832Z,21.43
2018-04-08T02:58:15.376Z,18.70
2018-04-08T03:00:42.845Z,16.73
2018-04-08T03:03:10.355Z,22.00
2018-04-08T03:05:37.863Z,17.20
2018-04-08T03:08:05.399Z,17.60
2018-04-08T03:10:32.919Z,18.97
2018-04-08T03:13:00.430Z,17.00
2018-04-08T03:15:27.946Z,21.33
2018-04-08T03:17:55.463Z,18.13
2018-04-08T03:20:23.015Z,20.57
2018-04-08T03:22:50.524Z,20.83
2018-04-08T03:25:18.054Z,29.13
2018-04-08T03:27:46.322Z,21.00
2018-04-08T03:30:13.843Z,18.60
2018-04-08T03:32:42.131Z,19.80
2018-04-08T03:35:09.650Z,20.00
2018-04-08T03:37:37.168Z,19.67
2018-04-08T03:40:04.688Z,22.57
2018-04-08T03:42:32.214Z,22.57
2018-04-08T03:44:59.728Z,19.27
2018-04-08T03:47:27.267Z,17.20
2018-04-08T03:49:54.783Z,23.03
2018-04-08T03:52:23.050Z,20.60
2018-04-08T03:54:51.359Z,18.90
2018-04-08T03:57:18.895Z,19.07
2018-04-08T03:59:47.177Z,22.80
2018-04-08T04:02:15.461Z,20.70
2018-04-08T04:04:42.983Z,17.00
2018-04-08T04:07:10.479Z,18.50
2018-04-08T04:09:38.031Z,22.47
2018-04-08T04:12:06.329Z,17.80
2018-04-08T04:14:33.878Z,19.63
2018-04-08T04:17:01.394Z,18.23
2018-04-08T04:19:40.650Z,18.70
2018-04-08T04:25:25.958Z,20.47
2018-04-08T04:27:54.243Z,22.33
2018-04-08T04:30:21.782Z,19.93
2018-04-08T04:32:50.101Z,21.40
2018-04-08T04:35:17.627Z,18.43
2018-04-08T04:37:45.953Z,18.83
2018-04-08T04:40:13.433Z,18.90
2018-04-08T04:42:40.963Z,19.93
2018-04-08T04:45:08.494Z,20.53
2018-04-08T04:47:36.025Z,22.13
2018-04-08T04:50:04.300Z,17.40
2018-04-08T04:52:31.815Z,18.00
2018-04-08T04:54:59.323Z,18.80
2018-04-08T04:57:27.619Z,23.20
2018-04-08T04:59:55.143Z,24.30
2018-04-08T05:02:22.670Z,20.10
2018-04-08T05:04:50.186Z,18.30
2018-04-08T05:07:18.502Z,20.43
2018-04-08T05:09:46.012Z,21.87
2018-04-08T05:12:14.308Z,20.17
2018-04-08T05:14:41.828Z,24.07
2018-04-08T05:17:09.323Z,21.87
2018-04-08T05:19:36.846Z,26.70
2018-04-08T05:22:04.358Z,22.10
2018-04-08T05:24:31.887Z,22.97
2018-04-08T05:27:00.170Z,26.83
2018-04-08T05:29:28.455Z,21.20
2018-04-08T05:31:55.998Z,21.13
2018-04-08T05:34:24.262Z,24.10
2018-04-08T05:36:52.567Z,22.80
2018-04-08T05:39:20.084Z,21.80
2018-04-08T05:41:47.594Z,28.93
2018-04-08T05:44:15.877Z,23.70
2018-04-08T05:46:43.537Z,25.03
2018-04-08T05:49:11.066Z,30.40
2018-04-08T05:51:39.336Z,26.17
2018-04-08T05:54:07.616Z,28.80
2018-04-08T05:56:35.885Z,27.63
2018-04-08T05:59:04.168Z,26.50
2018-04-08T06:01:32.490Z,23.60
2018-04-08T06:03:59.987Z,26.80
2018-04-08T06:06:27.523Z,25.00
2018-04-08T06:08:55.038Z,27.03
2018-04-08T06:11:22.541Z,19.43
2018-04-08T06:13:50.070Z,22.27
2018-04-08T06:16:17.602Z,20.17
2018-04-08T06:18:45.116Z,23.47
2018-04-08T06:21:12.618Z,26.40
2018-04-08T06:23:40.898Z,22.37
2018-04-08T06:26:08.391Z,26.53
2018-04-08T06:28:35.907Z,23.00
2018-04-08T06:31:04.178Z,23.00
2018-04-08T06:33:32.491Z,20.87
2018-04-08T06:36:00.798Z,20.70
2018-04-08T06:38:28.360Z,23.30
2018-04-08T06:40:55.865Z,24.27
2018-04-08T06:43:24.151Z,26.87
2018-04-08T06:45:51.663Z,25.90
2018-04-08T06:48:19.225Z,21.27
2018-04-08T06:50:46.727Z,23.73
2018-04-08T06:53:14.273Z,29.93
2018-04-08T06:55:42.575Z,26.40
2018-04-08T06:58:10.097Z,23.80
2018-04-08T07:00:38.414Z,23.30
2018-04-08T07:03:06.732Z,21.83
2018-04-08T07:05:34.255Z,24.53
2018-04-08T07:08:01.817Z,22.17
2018-04-08T07:10:29.370Z,23.17
2018-04-08T07:12:56.920Z,21.70
2018-04-08T07:15:24.509Z,22.17
2018-04-08T07:17:52.022Z,21.87
2018-04-08T07:20:19.538Z,21.37
2018-04-08T07:22:47.087Z,24.23
2018-04-08T07:25:14.636Z,26.80
2018-04-08T07:27:42.163Z,23.87
2018-04-08T07:30:09.714Z,21.73
2018-04-08T07:32:37.980Z,21.83
2018-04-08T07:35:06.304Z,22.57
2018-04-08T07:37:33.822Z,21.63
2018-04-08T07:40:02.111Z,19.87
2018-04-08T07:42:29.660Z,20.60
2018-04-08T07:44:57.937Z,22.60
2018-04-08T07:47:25.475Z,26.53
2018-04-08T07:49:52.993Z,22.53
2018-04-08T07:52:21.393Z,21.00
2018-04-08T07:54:48.903Z,24.70
2018-04-08T07:57:16.418Z,19.67
2018-04-08T07:59:43.955Z,20.60
2018-04-08T08:02:11.479Z,25.10
2018-04-08T08:04:39.030Z,20.87
2018-04-08T08:07:06.553Z,19.97
2018-04-08T08:09:34.067Z,22.70
2018-04-08T08:12:01.619Z,22.33
2018-04-08T08:14:29.156Z,22.03
2018-04-08T08:16:57.466Z,18.47
2018-04-08T08:19:25.053Z,27.50
2018-04-08T08:21:52.581Z,21.37
2018-04-08T08:24:20.098Z,21.73
2018-04-08T08:26:48.430Z,21.97
2018-04-08T08:29:15.977Z,25.60
2018-04-08T08:31:43.506Z,20.93
2018-04-08T08:34:11.828Z,19.90
2018-04-08T08:36:39.334Z,21.90
2018-04-08T08:39:07.613Z,21.70
2018-04-08T08:41:35.951Z,25.63
2018-04-08T08:44:03.467Z,19.50
2018-04-08T08:46:31.009Z,24.23
2018-04-08T08:48:59.307Z,23.80
2018-04-08T08:51:26.845Z,24.37
2018-04-08T08:53:55.116Z,20.30
2018-04-08T08:56:22.642Z,23.10
2018-04-08T08:58:50.187Z,23.90
2018-04-08T09:01:17.720Z,29.90
2018-04-08T09:03:45.274Z,28.03
2018-04-08T09:06:12.831Z,21.10
2018-04-08T09:08:40.357Z,21.93
2018-04-08T09:11:07.915Z,21.47
2018-04-08T09:13:35.460Z,21.20
2018-04-08T09:16:02.986Z,21.43
2018-04-08T09:18:30.545Z,23.60
2018-04-08T09:21:02.723Z,25.63
2018-04-08T09:23:49.176Z,23.10
2018-04-08T09:26:17.482Z,21.70
2018-04-08T09:28:45.043Z,25.73
2018-04-08T09:31:12.563Z,23.33
2018-04-08T09:33:40.096Z,21.33
2018-04-08T09:36:07.625Z,23.90
2018-04-08T09:38:35.143Z,26.10
2018-04-08T09:41:03.494Z,22.00
2018-04-08T09:43:31.006Z,19.60
2018-04-08T09:45:58.559Z,22.77
2018-04-08T09:48:26.962Z,22.27
2018-04-08T09:50:54.475Z,24.83
2018-04-08T09:53:21.978Z,29.17
2018-04-08T09:55:49.484Z,28.87
2018-04-08T09:58:18.585Z,24.17
2018-04-08T10:03:51.579Z,22.60
2018-04-08T10:06:19.097Z,24.00
2018-04-08T10:08:46.611Z,23.60
2018-04-08T10:11:14.123Z,24.73
2018-04-08T10:13:41.650Z,23.43
2018-04-08T10:16:09.249Z,23.63
2018-04-08T10:18:36.770Z,24.00
2018-04-08T10:21:05.081Z,35.47
2018-04-08T10:23:32.608Z,26.23
2018-04-08T10:26:00.123Z,25.17
2018-04-08T10:28:27.623Z,23.00
2018-04-08T10:30:55.958Z,26.17
2018-04-08T10:33:23.466Z,22.17
2018-04-08T10:35:51.015Z,30.57
2018-04-08T10:38:19.305Z,30.07
2018-04-08T10:40:46.856Z,24.00
2018-04-08T10:43:15.145Z,26.23
2018-04-08T10:45:43.142Z,25.07
2018-04-08T10:48:10.681Z,26.47
2018-04-08T10:50:38.226Z,27.57
2018-04-08T10:53:05.776Z,27.77
2018-04-08T10:55:34.053Z,27.83
2018-04-08T10:58:02.360Z,24.60
2018-04-08T11:00:29.898Z,24.20
2018-04-08T11:02:57.420Z,23.97
2018-04-08T11:05:24.981Z,24.03
2018-04-08T11:07:52.504Z,20.33
2018-04-08T11:10:20.030Z,21.67
2018-04-08T11:12:47.557Z,20.97
2018-04-08T11:15:15.060Z,21.67
2018-04-08T11:17:42.604Z,23.90
2018-04-08T11:20:10.142Z,20.70
2018-04-08T11:22:38.448Z,23.40
2018-04-08T11:25:05.959Z,23.70
2018-04-08T11:27:33.467Z,22.50
2018-04-08T11:30:01.066Z,22.63
2018-04-08T11:32:28.813Z,19.50
2018-04-08T11:34:56.359Z,20.60
2018-04-08T11:37:23.884Z,21.13
2018-04-08T11:39:52.237Z,20.23
2018-04-08T11:42:19.824Z,16.93
2018-04-08T11:44:48.128Z,20.00
2018-04-08T11:47:15.673Z,23.27
2018-04-08T11:49:44.081Z,17.20
2018-04-08T11:52:11.625Z,19.97
2018-04-08T11:54:39.136Z,25.77
2018-04-08T11:57:06.698Z,19.70
2018-04-08T11:59:34.224Z,21.03
2018-04-08T12:02:01.800Z,24.90
2018-04-08T12:04:29.295Z,57.23
2018-04-08T12:06:57.592Z,21.20
2018-04-08T12:09:25.134Z,17.33
2018-04-08T12:11:53.416Z,23.90
2018-04-08T12:14:20.935Z,14.40
2018-04-08T12:16:48.493Z,16.73
2018-04-08T12:19:16.036Z,14.13
2018-04-08T12:21:43.550Z,14.10
2018-04-08T12:24:14.135Z,12.87
2018-04-08T12:26:45.359Z,17.63
2018-04-08T12:29:12.918Z,11.40
2018-04-08T12:31:40.445Z,13.20
2018-04-08T12:34:08.713Z,12.93
2018-04-08T12:36:37.021Z,11.87
2018-04-08T12:39:04.539Z,12.87
2018-04-08T12:41:32.863Z,13.37
2018-04-08T12:44:00.390Z,11.60
2018-04-08T12:46:28.692Z,10.33
2018-04-08T12:48:56.221Z,11.17
2018-04-08T12:51:23.743Z,8.50
2018-04-08T12:53:51.306Z,12.00
2018-04-08T12:56:18.842Z,11.13
2018-04-08T12:58:46.331Z,11.13
2018-04-08T13:01:13.846Z,9.07
2018-04-08T13:03:41.372Z,9.37
2018-04-08T13:06:09.693Z,8.60
2018-04-08T13:08:37.237Z,11.27
2018-04-08T13:11:04.786Z,9.80
2018-04-08T13:13:32.322Z,11.53
2018-04-08T13:16:00.610Z,8.20
2018-04-08T13:18:28.922Z,8.60
2018-04-08T13:20:56.461Z,9.10
2018-04-08T13:23:23.992Z,8.27
2018-04-08T13:25:52.288Z,9.57
2018-04-08T13:28:19.786Z,8.23
2018-04-08T13:30:47.338Z,7.50
2018-04-08T13:33:14.891Z,7.60
2018-04-08T13:35:42.421Z,7.70
2018-04-08T13:38:09.950Z,7.90
2018-04-08T13:40:37.439Z,6.67
2018-04-08T13:43:04.963Z,6.20
2018-04-08T13:45:32.453Z,7.53
2018-04-08T13:48:00.771Z,6.10
2018-04-08T13:50:28.285Z,4.77
2018-04-08T13:52:56.564Z,4.77
2018-04-08T13:55:24.848Z,5.77
2018-04-08T13:57:52.364Z,6.10
2018-04-08T14:00:19.887Z,6.60
2018-04-08T14:02:47.399Z,10.07
2018-04-08T14:05:14.925Z,5.23
2018-04-08T14:07:42.439Z,4.77
2018-04-08T14:10:09.976Z,4.03
2018-04-08T14:12:38.283Z,4.07
2018-04-08T14:15:05.791Z,8.40
2018-04-08T14:17:33.314Z,5.70
2018-04-08T14:20:00.855Z,7.03
2018-04-08T14:22:28.395Z,6.00
2018-04-08T14:24:55.890Z,6.73
2018-04-08T14:27:23.411Z,6.47
2018-04-08T14:29:51.700Z,7.27
2018-04-08T14:32:19.223Z,5.80
2018-04-08T14:34:46.749Z,5.50
2018-04-08T14:37:14.271Z,5.27
2018-04-08T14:39:41.783Z,5.33
2018-04-08T14:42:09.322Z,6.23
2018-04-08T14:44:36.875Z,6.20
2018-04-08T14:47:04.449Z,4.83
2018-04-08T14:49:31.954Z,7.73
2018-04-08T14:51:59.497Z,5.83
2018-04-08T14:54:27.016Z,6.20
2018-04-08T14:56:54.580Z,6.27
2018-04-08T14:59:22.179Z,6.90
2018-04-08T15:01:49.709Z,6.60
2018-04-08T15:04:17.302Z,6.40
2018-04-08T15:06:45.621Z,7.70
2018-04-08T15:09:13.154Z,5.47
2018-04-08T15:11:41.506Z,5.80
2018-04-08T15:14:09.038Z,9.67
2018-04-08T15:16:36.528Z,6.47
2018-04-08T15:19:04.047Z,6.20
2018-04-08T15:21:31.555Z,7.20
2018-04-08T15:23:59.861Z,6.70
2018-04-08T15:26:27.363Z,5.60
2018-04-08T15:28:54.893Z,6.93
2018-04-08T15:31:22.425Z,4.97
2018-04-08T15:33:50.324Z,7.40
2018-04-08T15:36:17.827Z,5.13
2018-04-08T15:38:46.131Z,5.63
2018-04-08T15:41:13.690Z,4.60
2018-04-08T15:43:41.232Z,8.67
2018-04-08T15:46:09.508Z,5.73
2018-04-08T15:48:37.843Z,5.53
2018-04-08T15:51:05.396Z,8.10
2018-04-08T15:53:32.905Z,6.07
2018-04-08T15:56:01.225Z,7.80
2018-04-08T15:58:28.756Z,4.43
2018-04-08T16:00:56.291Z,4.00
2018-04-08T16:03:24.640Z,8.53
2018-04-08T16:05:52.156Z,6.47
2018-04-08T16:08:19.747Z,3.63
2018-04-08T16:10:47.249Z,4.00
2018-04-08T16:13:15.520Z,4.17
2018-04-08T16:15:43.796Z,4.77
2018-04-08T16:18:11.344Z,4.27
2018-04-08T16:20:38.874Z,4.10
2018-04-08T16:23:06.399Z,9.43
2018-04-08T16:25:33.977Z,9.10
2018-04-08T16:28:01.486Z,3.80
2018-04-08T16:30:29.014Z,4.50
2018-04-08T16:32:56.516Z,6.67
2018-04-08T16:35:24.827Z,5.03
2018-04-08T16:37:52.326Z,4.97
2018-04-08T16:40:19.827Z,6.30
2018-04-08T16:42:47.361Z,4.80
2018-04-08T16:45:15.643Z,7.77
2018-04-08T16:47:43.965Z,5.07
2018-04-08T16:50:11.476Z,4.13
2018-04-08T16:52:39.797Z,4.30
2018-04-08T16:55:07.325Z,4.30
2018-04-08T16:57:36.465Z,4.27
2018-04-08T17:00:04.808Z,9.73
2018-04-08T17:02:32.359Z,4.27
2018-04-08T17:05:00.900Z,4.30
2018-04-08T17:07:28.436Z,5.73
2018-04-08T17:09:55.991Z,7.10
2018-04-08T17:12:23.510Z,3.83
2018-04-08T17:14:51.864Z,9.33
2018-04-08T17:17:19.502Z,4.40
2018-04-08T17:19:47.827Z,5.33
2018-04-08T17:22:16.166Z,8.67
2018-04-08T17:24:43.706Z,5.17
2018-04-08T17:27:11.342Z,10.57
2018-04-08T17:29:38.853Z,5.13
2018-04-08T17:32:07.193Z,6.40
2018-04-08T17:34:34.708Z,7.07
2018-04-08T17:37:02.225Z,6.27
2018-04-08T17:39:29.880Z,9.10
2018-04-08T17:41:58.305Z,6.80
2018-04-08T17:44:26.600Z,5.57
2018-04-08T17:46:54.151Z,6.50
2018-04-08T17:49:22.435Z,5.73
2018-04-08T17:51:50.723Z,10.53
2018-04-08T17:54:18.392Z,5.57
2018-04-08T17:56:45.920Z,8.20
2018-04-08T17:59:13.479Z,6.43
2018-04-08T18:01:41.024Z,8.40
2018-04-08T18:04:08.627Z,12.63
2018-04-08T18:06:36.201Z,12.13
2018-04-08T18:09:03.704Z,7.23
2018-04-08T18:11:31.255Z,6.87
2018-04-08T18:13:59.153Z,7.53
2018-04-08T18:16:27.630Z,14.67
2018-04-08T18:18:55.215Z,5.67
2018-04-08T18:21:22.843Z,6.33
2018-04-08T18:23:51.144Z,10.30
2018-04-08T18:26:19.457Z,6.53
2018-04-08T18:28:47.002Z,9.93
2018-04-08T18:31:15.060Z,13.80
2018-04-08T18:33:43.056Z,8.60
2018-04-08T18:36:10.597Z,10.57
2018-04-08T18:38:38.111Z,7.40
2018-04-08T18:41:06.588Z,6.17
2018-04-08T18:43:34.438Z,7.93
2018-04-08T18:46:01.984Z,5.83
2018-04-08T18:48:29.585Z,7.97
2018-04-08T18:50:57.092Z,7.73
2018-04-08T18:53:25.135Z,7.13
2018-04-08T18:55:53.216Z,6.40
2018-04-08T18:58:20.752Z,7.10
2018-04-08T19:00:49.109Z,8.60
2018-04-08T19:03:16.784Z,9.30
2018-04-08T19:05:44.989Z,10.60
2018-04-08T19:12:48.244Z,14.20
2018-04-08T19:15:21.505Z,12.30
2018-04-08T19:17:54.620Z,10.70
2018-04-08T19:20:22.131Z,9.57
2018-04-08T19:22:50.905Z,10.83
2018-04-08T19:25:18.879Z,12.30
2018-04-08T19:27:47.174Z,8.67
2018-04-08T19:30:23.098Z,5.80
2018-04-08T19:32:50.713Z,6.47
2018-04-08T19:35:18.426Z,7.03
2018-04-08T19:37:46.026Z,6.00
2018-04-08T19:40:13.567Z,6.53
2018-04-08T19:42:42.207Z,6.43
2018-04-08T19:45:09.899Z,6.13
2018-04-08T19:47:38.694Z,6.20
2018-04-08T19:50:06.429Z,7.27
2018-04-08T19:52:34.730Z,7.40
2018-04-08T19:55:02.569Z,13.47
2018-04-08T19:57:30.328Z,5.77
2018-04-08T19:59:57.952Z,8.30
2018-04-08T20:02:25.596Z,6.90
2018-04-08T20:04:53.475Z,6.33
2018-04-08T20:07:21.565Z,5.40
2018-04-08T20:09:49.593Z,7.93
2018-04-08T20:12:18.170Z,8.17
2018-04-08T20:14:45.718Z,12.23
2018-04-08T20:17:13.218Z,6.27
2018-04-08T20:19:40.738Z,5.73
2018-04-08T20:22:08.279Z,6.00
2018-04-08T20:24:35.800Z,7.43
2018-04-08T20:27:03.310Z,10.03
2018-04-08T20:29:30.845Z,12.63
2018-04-08T20:31:58.670Z,6.87
2018-04-08T20:34:27.615Z,6.60
2018-04-08T20:36:56.130Z,6.73
2018-04-08T20:39:23.982Z,6.33
2018-04-08T20:41:52.093Z,13.80
2018-04-08T20:44:19.661Z,6.77
2018-04-08T20:46:47.571Z,7.00
2018-04-08T20:49:15.957Z,6.33
2018-04-08T20:51:43.562Z,10.00
2018-04-08T20:54:11.131Z,7.60
2018-04-08T20:56:39.314Z,7.80
2018-04-08T20:59:06.936Z,7.20
2018-04-08T21:01:35.791Z,6.70
2018-04-08T21:04:03.392Z,6.70
2018-04-08T21:06:31.668Z,7.57
2018-04-08T21:09:00.043Z,7.50
2018-04-08T21:11:28.449Z,6.87
2018-04-08T21:13:56.144Z,8.80
2018-04-08T21:16:23.702Z,7.93
2018-04-08T21:18:51.245Z,8.30
2018-04-08T21:21:19.041Z,7.13
2018-04-08T21:23:47.604Z,8.13
2018-04-08T21:26:16.604Z,7.40
2018-04-08T21:28:45.490Z,9.13
2018-04-08T21:31:13.818Z,8.90
2018-04-08T21:33:41.392Z,8.70
2018-04-08T21:36:08.892Z,10.07
2018-04-08T21:38:36.952Z,8.00
2018-04-08T21:41:04.717Z,6.50
2018-04-08T21:43:33.074Z,30.67
2018-04-08T21:46:00.702Z,22.57
2018-04-08T21:48:29.002Z,17.63
2018-04-08T21:50:57.366Z,11.37
2018-04-08T21:53:25.678Z,9.97
2018-04-08T21:55:53.202Z,8.50
2018-04-08T21:58:21.491Z,8.50
2018-04-08T22:00:49.060Z,13.10
2018-04-08T22:03:16.559Z,11.40
2018-04-08T22:05:44.097Z,8.97
2018-04-08T22:08:11.637Z,9.10
2018-04-08T22:10:39.144Z,12.97
2018-04-08T22:13:06.675Z,8.90
2018-04-08T22:15:34.183Z,9.13
2018-04-08T22:18:02.497Z,14.50
2018-04-08T22:20:30.051Z,8.37
2018-04-08T22:22:57.549Z,8.43
2018-04-08T22:25:25.042Z,9.43
2018-04-08T22:27:53.329Z,9.53
2018-04-08T22:30:21.617Z,8.73
2018-04-08T22:32:49.142Z,9.40
2018-04-08T22:35:17.487Z,8.20
2018-04-08T22:37:45.035Z,8.07
2018-04-08T22:40:12.544Z,7.83
2018-04-08T22:42:40.853Z,9.23
2018-04-08T22:45:08.371Z,10.23
2018-04-08T22:47:35.900Z,8.53
2018-04-08T22:50:03.483Z,9.33
2018-04-08T22:52:31.105Z,11.50
2018-04-08T22:54:58.654Z,10.60
2018-04-08T22:57:26.168Z,8.30
2018-04-08T22:59:54.472Z,8.20
2018-04-08T23:02:21.967Z,9.27
2018-04-08T23:04:49.486Z,9.67
2018-04-08T23:07:17.017Z,11.40
2018-04-08T23:09:44.533Z,10.97
2018-04-08T23:12:12.059Z,10.23
2018-04-08T23:14:40.329Z,10.70
2018-04-08T23:17:08.606Z,11.20
2018-04-08T23:19:36.899Z,16.93
2018-04-08T23:22:04.417Z,12.10
2018-04-08T23:24:32.691Z,11.07
2018-04-08T23:27:00.236Z,10.53
2018-04-08T23:29:27.780Z,10.77
2018-04-08T23:31:55.316Z,11.50
2018-04-08T23:34:22.839Z,11.37
2018-04-08T23:36:51.144Z,13.57
2018-04-08T23:39:18.643Z,10.70
2018-04-08T23:41:46.179Z,11.23
2018-04-08T23:44:13.715Z,11.73
2018-04-08T23:46:41.220Z,11.33
2018-04-08T23:49:08.750Z,9.73
2018-04-08T23:51:36.258Z,10.90
2018-04-08T23:54:03.759Z,13.77
2018-04-08T23:56:31.306Z,9.80
2018-04-08T23:58:58.857Z,10.30
